Tropical Cyclones
[Index]
Main Index Home Page Stock Weather Photos Extreme Storms Discussion Storm News and Storm Chasing Reports Tropical Cyclones / Hurricanes / Typhoons Weather Data and Links Wild Fires / Bushfires Weather Observation Techniques Weather Picture Catalogue Tornado Pictures and Reports Stock Video Footage and DVDs for sale
Season 2008-2009 Tropical Cyclone DONGO Track Map
Season 2008-2009 Summaries (Operational Data): [AU] [SIO] [SPAC] [SH]
<<- Previous TC | 2008-2009 Season | Next TC ->>

click for intensity scale information  Lat/long Grid: Show Hide

 Date Labels: Show Hide

Operational Tropical Cyclone Data : JTWC Advisories

Name: DONGO
Number: 0906

08 Jan 2009 06:00 UTC to 18 Jan 2009 06:00 UTC

    date/time    lat    long     hPa   cat  kts
2009-01-08 06   13.0    70.0    1004         20          
2009-01-08 12   14.0    70.7    1002         25          
2009-01-08 18   14.3    70.0    1002         25          
2009-01-09 00   15.0    68.0    1002         25          
2009-01-09 06   16.3    68.7    1002         25          
2009-01-09 12   17.1    68.2     995    1    35          
2009-01-09 18   18.0    67.8     993    1    35          
2009-01-10 00   18.1    67.7     993    1    35          
2009-01-10 06   17.8    66.9     995    1    35          
2009-01-10 12   18.8    67.6     994    1    35          
2009-01-10 18   19.6    67.8     990    1    40          
2009-01-11 00   20.7    68.3     985    2    50          
2009-01-11 06   21.8    69.1     985    2    50          
2009-01-11 12   22.8    69.7     985    2    50          
2009-01-11 18   24.4    69.8     985    2    50          
2009-01-12 00   27.0    70.2     987    1    45          
2009-01-12 06   28.8    70.4     988    2    55          
2009-01-12 12   29.0    70.3     988    2    50          
2009-01-12 18   30.1    71.4     988    2    50          
2009-01-13 00   31.0    72.2     988    2    50          
2009-01-13 06   32.5    72.5     995                     
2009-01-13 12   32.7    74.9     994                     
2009-01-13 18   34.9    77.3     994                     
2009-01-14 00   37.2    80.0     992                     
2009-01-14 06   39.3    82.8     987                     
2009-01-14 12   42.5    87.5     981                     
2009-01-14 18   44.9    92.4     973                     
2009-01-15 00   47.5    96.4     965                     
2009-01-15 06   50.2   100.2     960                     
2009-01-15 12   54.1   103.0     958                     
2009-01-15 18   55.9   106.5     958                     
2009-01-16 00   57.5   109.9     950                     
2009-01-16 06   59.0   112.0     948                     
2009-01-16 12   59.9   114.5     946                     
2009-01-16 18   60.9   117.4     946                     
2009-01-17 00   62.2   119.8     950                     
2009-01-17 06   62.3   122.4     956                     
2009-01-17 12   62.6   123.9     957                     
2009-01-17 18   62.6   125.5     963                     
2009-01-18 00   62.6   126.5     966                     
2009-01-18 06   62.6   127.5     970                     
Winds are 10-min average.

Tropical cyclone tracks developed by Michael Bath using operational warnings and advisories and Google Maps.


[Australian Severe Weather index] [Copyright Notice] [Email Contacts] [Search This Site] [Privacy Policy]
Document: tropical_cyclone_dongo.htm Updated: 28 May 2013